sensor_id;sensor_type;location;lat;lon;timestamp;P1;durP1;ratioP1;P2;durP2;ratioP2
38023;SDS011;23834;48.080;11.682;2023-02-01T00:01:07;1.23;;;1.00;;
38023;SDS011;23834;48.080;11.682;2023-02-01T00:03:32;1.30;;;1.00;;
38023;SDS011;23834;48.080;11.682;2023-02-01T00:05:58;0.90;;;0.90;;
38023;SDS011;23834;48.080;11.682;2023-02-01T00:08:24;0.90;;;0.90;;
38023;SDS011;23834;48.080;11.682;2023-02-01T00:10:57;1.17;;;0.80;;
38023;SDS011;23834;48.080;11.682;2023-02-01T00:13:22;1.73;;;0.90;;
38023;SDS011;23834;48.080;11.682;2023-02-01T00:15:47;1.50;;;1.10;;
38023;SDS011;23834;48.080;11.682;2023-02-01T00:18:12;1.53;;;1.07;;
38023;SDS011;23834;48.080;11.682;2023-02-01T00:20:38;0.97;;;0.93;;
38023;SDS011;23834;48.080;11.682;2023-02-01T00:23:03;1.60;;;1.20;;
38023;SDS011;23834;48.080;11.682;2023-02-01T00:25:29;1.30;;;1.20;;
38023;SDS011;23834;48.080;11.682;2023-02-01T00:27:54;1.00;;;0.90;;
38023;SDS011;23834;48.080;11.682;2023-02-01T00:30:21;1.03;;;0.93;;
38023;SDS011;23834;48.080;11.682;2023-02-01T00:32:46;0.97;;;0.97;;
38023;SDS011;23834;48.080;11.682;2023-02-01T00:35:12;0.80;;;0.80;;
38023;SDS011;23834;48.080;11.682;2023-02-01T00:37:37;1.40;;;1.30;;
38023;SDS011;23834;48.080;11.682;2023-02-01T00:40:02;1.20;;;1.10;;
38023;SDS011;23834;48.080;11.682;2023-02-01T00:42:28;1.37;;;1.10;;
38023;SDS011;23834;48.080;11.682;2023-02-01T00:44:53;0.90;;;0.90;;
38023;SDS011;23834;48.080;11.682;2023-02-01T00:47:18;1.33;;;1.20;;
38023;SDS011;23834;48.080;11.682;2023-02-01T00:49:44;0.87;;;0.87;;
38023;SDS011;23834;48.080;11.682;2023-02-01T00:52:10;2.47;;;1.10;;
38023;SDS011;23834;48.080;11.682;2023-02-01T00:54:35;1.03;;;1.03;;
38023;SDS011;23834;48.080;11.682;2023-02-01T00:57:02;1.00;;;0.97;;
38023;SDS011;23834;48.080;11.682;2023-02-01T00:59:27;1.30;;;1.20;;
38023;SDS011;23834;48.080;11.682;2023-02-01T01:01:52;0.87;;;0.87;;
38023;SDS011;23834;48.080;11.682;2023-02-01T01:04:17;1.53;;;1.10;;
38023;SDS011;23834;48.080;11.682;2023-02-01T01:06:42;1.10;;;0.90;;
38023;SDS011;23834;48.080;11.682;2023-02-01T01:09:08;1.10;;;1.00;;
38023;SDS011;23834;48.080;11.682;2023-02-01T01:11:35;0.90;;;0.90;;
38023;SDS011;23834;48.080;11.682;2023-02-01T01:14:00;1.10;;;1.00;;
38023;SDS011;23834;48.080;11.682;2023-02-01T01:16:26;1.10;;;1.00;;
38023;SDS011;23834;48.080;11.682;2023-02-01T01:18:51;0.80;;;0.80;;
38023;SDS011;23834;48.080;11.682;2023-02-01T01:21:17;1.37;;;1.20;;
38023;SDS011;23834;48.080;11.682;2023-02-01T01:23:43;0.90;;;0.90;;
38023;SDS011;23834;48.080;11.682;2023-02-01T01:26:09;1.33;;;0.93;;
38023;SDS011;23834;48.080;11.682;2023-02-01T01:28:35;1.50;;;1.00;;
38023;SDS011;23834;48.080;11.682;2023-02-01T01:31:00;1.40;;;1.30;;
38023;SDS011;23834;48.080;11.682;2023-02-01T01:33:26;0.70;;;0.70;;
38023;SDS011;23834;48.080;11.682;2023-02-01T01:35:51;1.20;;;1.10;;
38023;SDS011;23834;48.080;11.682;2023-02-01T01:38:16;0.77;;;0.77;;
38023;SDS011;23834;48.080;11.682;2023-02-01T01:40:44;1.00;;;1.00;;
38023;SDS011;23834;48.080;11.682;2023-02-01T01:43:13;0.87;;;0.87;;
38023;SDS011;23834;48.080;11.682;2023-02-01T01:45:39;1.10;;;1.00;;
38023;SDS011;23834;48.080;11.682;2023-02-01T01:48:38;1.10;;;1.00;;
38023;SDS011;23834;48.080;11.682;2023-02-01T01:51:06;0.90;;;0.90;;
38023;SDS011;23834;48.080;11.682;2023-02-01T01:53:34;1.73;;;0.77;;
38023;SDS011;23834;48.080;11.682;2023-02-01T01:56:02;0.90;;;0.90;;
38023;SDS011;23834;48.080;11.682;2023-02-01T01:58:27;1.83;;;0.97;;
38023;SDS011;23834;48.080;11.682;2023-02-01T02:00:54;1.23;;;1.13;;
38023;SDS011;23834;48.080;11.682;2023-02-01T02:03:25;0.73;;;0.73;;
38023;SDS011;23834;48.080;11.682;2023-02-01T02:05:52;1.00;;;0.90;;
38023;SDS011;23834;48.080;11.682;2023-02-01T02:08:18;0.90;;;0.90;;
38023;SDS011;23834;48.080;11.682;2023-02-01T02:10:45;0.90;;;0.83;;
38023;SDS011;23834;48.080;11.682;2023-02-01T02:13:26;1.13;;;1.03;;
38023;SDS011;23834;48.080;11.682;2023-02-01T02:18:39;0.80;;;0.80;;
38023;SDS011;23834;48.080;11.682;2023-02-01T02:26:15;0.90;;;0.90;;
38023;SDS011;23834;48.080;11.682;2023-02-01T02:39:12;1.13;;;0.90;;
38023;SDS011;23834;48.080;11.682;2023-02-01T02:41:44;1.30;;;1.10;;
38023;SDS011;23834;48.080;11.682;2023-02-01T02:44:33;0.83;;;0.83;;
38023;SDS011;23834;48.080;11.682;2023-02-01T02:47:23;1.20;;;1.10;;
38023;SDS011;23834;48.080;11.682;2023-02-01T02:50:09;1.10;;;1.00;;
38023;SDS011;23834;48.080;11.682;2023-02-01T02:53:00;1.20;;;1.10;;
38023;SDS011;23834;48.080;11.682;2023-02-01T02:55:45;1.17;;;1.10;;
38023;SDS011;23834;48.080;11.682;2023-02-01T02:58:11;1.53;;;0.90;;
38023;SDS011;23834;48.080;11.682;2023-02-01T03:00:56;1.70;;;1.13;;
38023;SDS011;23834;48.080;11.682;2023-02-01T03:03:40;1.67;;;1.00;;
38023;SDS011;23834;48.080;11.682;2023-02-01T03:06:24;1.20;;;1.10;;
38023;SDS011;23834;48.080;11.682;2023-02-01T03:08:49;1.20;;;0.90;;
38023;SDS011;23834;48.080;11.682;2023-02-01T03:11:18;1.20;;;1.03;;
38023;SDS011;23834;48.080;11.682;2023-02-01T03:13:57;0.80;;;0.80;;
38023;SDS011;23834;48.080;11.682;2023-02-01T03:16:24;0.80;;;0.80;;
38023;SDS011;23834;48.080;11.682;2023-02-01T03:18:55;1.03;;;1.03;;
38023;SDS011;23834;48.080;11.682;2023-02-01T03:21:23;2.37;;;1.10;;
38023;SDS011;23834;48.080;11.682;2023-02-01T03:23:49;1.20;;;1.10;;
38023;SDS011;23834;48.080;11.682;2023-02-01T03:26:16;0.87;;;0.80;;
38023;SDS011;23834;48.080;11.682;2023-02-01T03:28:43;1.30;;;1.20;;
38023;SDS011;23834;48.080;11.682;2023-02-01T03:31:12;1.07;;;1.00;;
38023;SDS011;23834;48.080;11.682;2023-02-01T03:33:39;1.07;;;0.97;;
38023;SDS011;23834;48.080;11.682;2023-02-01T03:36:15;1.13;;;1.10;;
38023;SDS011;23834;48.080;11.682;2023-02-01T03:41:16;0.83;;;0.83;;
38023;SDS011;23834;48.080;11.682;2023-02-01T03:43:55;0.70;;;0.70;;
38023;SDS011;23834;48.080;11.682;2023-02-01T03:46:32;1.23;;;0.93;;
38023;SDS011;23834;48.080;11.682;2023-02-01T03:48:59;1.00;;;1.00;;
38023;SDS011;23834;48.080;11.682;2023-02-01T03:51:25;1.40;;;1.00;;
38023;SDS011;23834;48.080;11.682;2023-02-01T03:53:51;1.20;;;1.00;;
38023;SDS011;23834;48.080;11.682;2023-02-01T03:56:17;1.13;;;1.00;;
38023;SDS011;23834;48.080;11.682;2023-02-01T03:58:43;1.60;;;0.90;;
38023;SDS011;23834;48.080;11.682;2023-02-01T04:01:23;1.30;;;0.90;;
38023;SDS011;23834;48.080;11.682;2023-02-01T04:03:48;1.20;;;0.77;;
38023;SDS011;23834;48.080;11.682;2023-02-01T04:06:13;0.80;;;0.80;;
38023;SDS011;23834;48.080;11.682;2023-02-01T04:08:38;1.17;;;1.07;;
38023;SDS011;23834;48.080;11.682;2023-02-01T04:11:03;1.73;;;0.70;;
38023;SDS011;23834;48.080;11.682;2023-02-01T04:13:28;0.70;;;0.70;;
38023;SDS011;23834;48.080;11.682;2023-02-01T04:15:54;1.37;;;1.10;;
38023;SDS011;23834;48.080;11.682;2023-02-01T04:18:19;1.07;;;0.97;;
38023;SDS011;23834;48.080;11.682;2023-02-01T04:20:44;1.23;;;0.93;;
38023;SDS011;23834;48.080;11.682;2023-02-01T04:23:09;0.83;;;0.83;;
38023;SDS011;23834;48.080;11.682;2023-02-01T04:25:35;0.73;;;0.73;;
38023;SDS011;23834;48.080;11.682;2023-02-01T04:28:00;1.03;;;0.93;;
38023;SDS011;23834;48.080;11.682;2023-02-01T04:30:25;1.00;;;0.97;;
38023;SDS011;23834;48.080;11.682;2023-02-01T04:32:50;0.80;;;0.80;;
38023;SDS011;23834;48.080;11.682;2023-02-01T04:35:15;1.43;;;1.00;;
38023;SDS011;23834;48.080;11.682;2023-02-01T04:37:42;1.00;;;1.00;;
38023;SDS011;23834;48.080;11.682;2023-02-01T04:40:08;1.10;;;1.00;;
38023;SDS011;23834;48.080;11.682;2023-02-01T04:42:33;0.90;;;0.90;;
38023;SDS011;23834;48.080;11.682;2023-02-01T04:44:59;1.07;;;0.97;;
38023;SDS011;23834;48.080;11.682;2023-02-01T04:47:24;1.00;;;0.90;;
38023;SDS011;23834;48.080;11.682;2023-02-01T04:49:49;1.00;;;1.00;;
38023;SDS011;23834;48.080;11.682;2023-02-01T04:52:14;1.23;;;0.80;;
38023;SDS011;23834;48.080;11.682;2023-02-01T04:54:39;1.10;;;1.00;;
38023;SDS011;23834;48.080;11.682;2023-02-01T04:57:05;1.10;;;1.00;;
38023;SDS011;23834;48.080;11.682;2023-02-01T04:59:30;1.17;;;1.00;;
38023;SDS011;23834;48.080;11.682;2023-02-01T05:01:55;1.03;;;0.97;;
38023;SDS011;23834;48.080;11.682;2023-02-01T05:04:20;1.20;;;1.10;;
38023;SDS011;23834;48.080;11.682;2023-02-01T05:06:45;1.10;;;1.00;;
38023;SDS011;23834;48.080;11.682;2023-02-01T05:09:11;1.57;;;1.20;;
38023;SDS011;23834;48.080;11.682;2023-02-01T05:11:36;1.17;;;0.90;;
38023;SDS011;23834;48.080;11.682;2023-02-01T05:14:20;1.00;;;1.00;;
38023;SDS011;23834;48.080;11.682;2023-02-01T05:16:45;1.27;;;1.17;;
38023;SDS011;23834;48.080;11.682;2023-02-01T05:19:10;1.23;;;0.80;;
38023;SDS011;23834;48.080;11.682;2023-02-01T05:21:36;1.43;;;0.80;;
38023;SDS011;23834;48.080;11.682;2023-02-01T05:24:01;0.90;;;0.80;;
38023;SDS011;23834;48.080;11.682;2023-02-01T05:26:37;0.90;;;0.90;;
38023;SDS011;23834;48.080;11.682;2023-02-01T05:29:03;1.63;;;1.07;;
38023;SDS011;23834;48.080;11.682;2023-02-01T05:31:28;1.27;;;1.00;;
38023;SDS011;23834;48.080;11.682;2023-02-01T05:33:53;0.90;;;0.90;;
38023;SDS011;23834;48.080;11.682;2023-02-01T05:36:18;1.07;;;0.97;;
38023;SDS011;23834;48.080;11.682;2023-02-01T05:38:44;1.13;;;1.07;;
38023;SDS011;23834;48.080;11.682;2023-02-01T05:41:09;0.90;;;0.90;;
38023;SDS011;23834;48.080;11.682;2023-02-01T05:43:34;0.93;;;0.93;;
38023;SDS011;23834;48.080;11.682;2023-02-01T05:45:59;0.90;;;0.90;;
38023;SDS011;23834;48.080;11.682;2023-02-01T05:48:24;1.10;;;1.00;;
38023;SDS011;23834;48.080;11.682;2023-02-01T05:50:50;0.90;;;0.90;;
38023;SDS011;23834;48.080;11.682;2023-02-01T05:53:15;0.80;;;0.80;;
38023;SDS011;23834;48.080;11.682;2023-02-01T05:55:41;0.93;;;0.93;;
38023;SDS011;23834;48.080;11.682;2023-02-01T05:58:06;0.90;;;0.90;;
38023;SDS011;23834;48.080;11.682;2023-02-01T06:00:31;1.20;;;1.00;;
38023;SDS011;23834;48.080;11.682;2023-02-01T06:02:57;2.20;;;1.00;;
38023;SDS011;23834;48.080;11.682;2023-02-01T06:05:22;1.20;;;1.10;;
38023;SDS011;23834;48.080;11.682;2023-02-01T06:07:48;0.90;;;0.90;;
38023;SDS011;23834;48.080;11.682;2023-02-01T06:10:14;0.70;;;0.70;;
38023;SDS011;23834;48.080;11.682;2023-02-01T06:12:40;0.83;;;0.83;;
38023;SDS011;23834;48.080;11.682;2023-02-01T06:15:05;0.87;;;0.87;;
38023;SDS011;23834;48.080;11.682;2023-02-01T06:17:30;1.20;;;1.07;;
38023;SDS011;23834;48.080;11.682;2023-02-01T06:19:56;1.10;;;1.10;;
38023;SDS011;23834;48.080;11.682;2023-02-01T06:22:21;1.40;;;1.10;;
38023;SDS011;23834;48.080;11.682;2023-02-01T06:24:47;0.90;;;0.90;;
38023;SDS011;23834;48.080;11.682;2023-02-01T06:27:12;1.00;;;0.90;;
38023;SDS011;23834;48.080;11.682;2023-02-01T06:29:38;0.97;;;0.90;;
38023;SDS011;23834;48.080;11.682;2023-02-01T06:32:03;0.80;;;0.80;;
38023;SDS011;23834;48.080;11.682;2023-02-01T06:34:28;1.53;;;1.23;;
38023;SDS011;23834;48.080;11.682;2023-02-01T06:36:54;1.57;;;1.17;;
38023;SDS011;23834;48.080;11.682;2023-02-01T06:39:19;1.37;;;1.10;;
38023;SDS011;23834;48.080;11.682;2023-02-01T06:41:48;1.23;;;1.13;;
38023;SDS011;23834;48.080;11.682;2023-02-01T06:44:13;2.37;;;1.43;;
38023;SDS011;23834;48.080;11.682;2023-02-01T06:46:39;1.40;;;1.30;;
38023;SDS011;23834;48.080;11.682;2023-02-01T06:49:04;2.50;;;1.43;;
38023;SDS011;23834;48.080;11.682;2023-02-01T06:51:29;1.20;;;1.10;;
38023;SDS011;23834;48.080;11.682;2023-02-01T06:53:55;2.40;;;1.60;;
38023;SDS011;23834;48.080;11.682;2023-02-01T06:56:20;1.43;;;1.30;;
38023;SDS011;23834;48.080;11.682;2023-02-01T06:58:45;1.60;;;1.23;;
38023;SDS011;23834;48.080;11.682;2023-02-01T07:01:11;1.23;;;1.10;;
38023;SDS011;23834;48.080;11.682;2023-02-01T07:03:36;2.33;;;1.40;;
38023;SDS011;23834;48.080;11.682;2023-02-01T07:06:02;1.37;;;0.97;;
38023;SDS011;23834;48.080;11.682;2023-02-01T07:08:28;1.40;;;1.27;;
38023;SDS011;23834;48.080;11.682;2023-02-01T07:10:54;2.20;;;1.33;;
38023;SDS011;23834;48.080;11.682;2023-02-01T07:13:19;4.03;;;1.57;;
38023;SDS011;23834;48.080;11.682;2023-02-01T07:15:44;1.80;;;1.10;;
38023;SDS011;23834;48.080;11.682;2023-02-01T07:18:12;3.23;;;1.70;;
38023;SDS011;23834;48.080;11.682;2023-02-01T07:20:39;1.60;;;1.30;;
38023;SDS011;23834;48.080;11.682;2023-02-01T07:23:04;1.37;;;1.27;;
38023;SDS011;23834;48.080;11.682;2023-02-01T07:25:29;1.93;;;1.30;;
38023;SDS011;23834;48.080;11.682;2023-02-01T07:27:54;1.23;;;1.13;;
38023;SDS011;23834;48.080;11.682;2023-02-01T07:30:19;1.43;;;1.33;;
38023;SDS011;23834;48.080;11.682;2023-02-01T07:32:45;1.50;;;1.40;;
38023;SDS011;23834;48.080;11.682;2023-02-01T07:35:10;3.83;;;1.50;;
38023;SDS011;23834;48.080;11.682;2023-02-01T07:37:35;1.63;;;1.50;;
38023;SDS011;23834;48.080;11.682;2023-02-01T07:40:00;1.27;;;1.17;;
38023;SDS011;23834;48.080;11.682;2023-02-01T07:42:25;4.10;;;1.47;;
38023;SDS011;23834;48.080;11.682;2023-02-01T07:44:51;2.23;;;1.70;;
38023;SDS011;23834;48.080;11.682;2023-02-01T07:47:16;1.90;;;1.30;;
38023;SDS011;23834;48.080;11.682;2023-02-01T07:49:41;1.63;;;1.43;;
38023;SDS011;23834;48.080;11.682;2023-02-01T07:52:06;1.83;;;1.40;;
38023;SDS011;23834;48.080;11.682;2023-02-01T07:54:31;2.63;;;1.77;;
38023;SDS011;23834;48.080;11.682;2023-02-01T07:56:56;2.10;;;1.90;;
38023;SDS011;23834;48.080;11.682;2023-02-01T07:59:22;2.60;;;2.17;;
38023;SDS011;23834;48.080;11.682;2023-02-01T08:01:47;2.77;;;2.13;;
38023;SDS011;23834;48.080;11.682;2023-02-01T08:04:12;4.80;;;3.10;;
38023;SDS011;23834;48.080;11.682;2023-02-01T08:06:39;3.80;;;2.27;;
38023;SDS011;23834;48.080;11.682;2023-02-01T08:09:04;3.73;;;2.67;;
38023;SDS011;23834;48.080;11.682;2023-02-01T08:11:30;2.67;;;2.07;;
38023;SDS011;23834;48.080;11.682;2023-02-01T08:13:55;6.37;;;2.83;;
38023;SDS011;23834;48.080;11.682;2023-02-01T08:16:21;2.97;;;2.40;;
38023;SDS011;23834;48.080;11.682;2023-02-01T08:18:46;3.10;;;2.57;;
38023;SDS011;23834;48.080;11.682;2023-02-01T08:21:15;2.77;;;2.50;;
38023;SDS011;23834;48.080;11.682;2023-02-01T08:23:41;3.67;;;2.70;;
38023;SDS011;23834;48.080;11.682;2023-02-01T08:28:35;2.30;;;2.10;;
38023;SDS011;23834;48.080;11.682;2023-02-01T08:31:03;2.70;;;2.10;;
38023;SDS011;23834;48.080;11.682;2023-02-01T08:33:28;2.47;;;1.93;;
38023;SDS011;23834;48.080;11.682;2023-02-01T08:35:54;1.90;;;1.80;;
38023;SDS011;23834;48.080;11.682;2023-02-01T08:38:19;2.50;;;2.10;;
38023;SDS011;23834;48.080;11.682;2023-02-01T08:40:44;2.70;;;1.70;;
38023;SDS011;23834;48.080;11.682;2023-02-01T08:43:10;2.90;;;1.90;;
38023;SDS011;23834;48.080;11.682;2023-02-01T08:45:35;1.97;;;1.60;;
38023;SDS011;23834;48.080;11.682;2023-02-01T08:48:00;2.33;;;1.70;;
38023;SDS011;23834;48.080;11.682;2023-02-01T08:50:26;2.37;;;1.93;;
38023;SDS011;23834;48.080;11.682;2023-02-01T08:52:51;1.77;;;1.57;;
38023;SDS011;23834;48.080;11.682;2023-02-01T08:55:16;1.60;;;1.50;;
38023;SDS011;23834;48.080;11.682;2023-02-01T08:57:42;1.87;;;1.70;;
38023;SDS011;23834;48.080;11.682;2023-02-01T09:00:08;1.80;;;1.70;;
38023;SDS011;23834;48.080;11.682;2023-02-01T09:02:34;2.47;;;1.80;;
38023;SDS011;23834;48.080;11.682;2023-02-01T09:04:59;1.60;;;1.50;;
38023;SDS011;23834;48.080;11.682;2023-02-01T09:07:25;1.80;;;1.57;;
38023;SDS011;23834;48.080;11.682;2023-02-01T09:09:50;2.57;;;1.47;;
38023;SDS011;23834;48.080;11.682;2023-02-01T09:12:15;1.70;;;1.60;;
38023;SDS011;23834;48.080;11.682;2023-02-01T09:14:41;1.40;;;1.30;;
38023;SDS011;23834;48.080;11.682;2023-02-01T09:17:06;2.00;;;1.57;;
38023;SDS011;23834;48.080;11.682;2023-02-01T09:19:31;1.53;;;1.43;;
38023;SDS011;23834;48.080;11.682;2023-02-01T09:21:56;1.50;;;1.40;;
38023;SDS011;23834;48.080;11.682;2023-02-01T09:24:22;1.70;;;1.60;;
38023;SDS011;23834;48.080;11.682;2023-02-01T09:26:47;2.17;;;1.20;;
38023;SDS011;23834;48.080;11.682;2023-02-01T09:29:12;1.43;;;1.33;;
38023;SDS011;23834;48.080;11.682;2023-02-01T09:31:38;1.57;;;1.33;;
38023;SDS011;23834;48.080;11.682;2023-02-01T09:34:03;2.53;;;1.27;;
38023;SDS011;23834;48.080;11.682;2023-02-01T09:36:29;1.20;;;1.10;;
38023;SDS011;23834;48.080;11.682;2023-02-01T09:38:54;1.30;;;1.20;;
38023;SDS011;23834;48.080;11.682;2023-02-01T09:41:41;1.30;;;1.20;;
38023;SDS011;23834;48.080;11.682;2023-02-01T09:46:38;1.37;;;1.27;;
38023;SDS011;23834;48.080;11.682;2023-02-01T09:49:05;1.40;;;1.30;;
38023;SDS011;23834;48.080;11.682;2023-02-01T09:51:33;1.47;;;1.10;;
38023;SDS011;23834;48.080;11.682;2023-02-01T09:54:21;1.30;;;1.20;;
38023;SDS011;23834;48.080;11.682;2023-02-01T10:01:35;1.50;;;1.03;;
38023;SDS011;23834;48.080;11.682;2023-02-01T10:04:03;1.07;;;1.00;;
38023;SDS011;23834;48.080;11.682;2023-02-01T10:22:24;2.93;;;1.20;;
38023;SDS011;23834;48.080;11.682;2023-02-01T10:27:43;1.03;;;0.93;;
38023;SDS011;23834;48.080;11.682;2023-02-01T10:32:38;1.00;;;0.90;;
38023;SDS011;23834;48.080;11.682;2023-02-01T10:35:09;1.27;;;1.17;;
38023;SDS011;23834;48.080;11.682;2023-02-01T10:37:35;1.17;;;1.10;;
38023;SDS011;23834;48.080;11.682;2023-02-01T10:40:02;1.10;;;1.00;;
38023;SDS011;23834;48.080;11.682;2023-02-01T10:42:30;1.30;;;1.20;;
38023;SDS011;23834;48.080;11.682;2023-02-01T10:44:56;1.13;;;1.00;;
38023;SDS011;23834;48.080;11.682;2023-02-01T10:47:23;0.80;;;0.77;;
38023;SDS011;23834;48.080;11.682;2023-02-01T10:49:55;1.23;;;1.13;;
38023;SDS011;23834;48.080;11.682;2023-02-01T10:52:34;0.90;;;0.90;;
38023;SDS011;23834;48.080;11.682;2023-02-01T10:57:48;0.90;;;0.90;;
38023;SDS011;23834;48.080;11.682;2023-02-01T11:00:20;1.90;;;1.00;;
38023;SDS011;23834;48.080;11.682;2023-02-01T11:02:46;0.80;;;0.80;;
38023;SDS011;23834;48.080;11.682;2023-02-01T11:05:11;1.63;;;1.03;;
38023;SDS011;23834;48.080;11.682;2023-02-01T11:07:37;1.60;;;1.10;;
38023;SDS011;23834;48.080;11.682;2023-02-01T11:10:03;1.10;;;1.00;;
38023;SDS011;23834;48.080;11.682;2023-02-01T11:12:38;0.93;;;0.93;;
38023;SDS011;23834;48.080;11.682;2023-02-01T11:15:20;1.10;;;1.10;;
38023;SDS011;23834;48.080;11.682;2023-02-01T11:17:46;1.07;;;0.97;;
38023;SDS011;23834;48.080;11.682;2023-02-01T11:20:13;1.40;;;1.30;;
38023;SDS011;23834;48.080;11.682;2023-02-01T11:22:39;1.07;;;1.00;;
38023;SDS011;23834;48.080;11.682;2023-02-01T11:25:10;1.50;;;1.40;;
38023;SDS011;23834;48.080;11.682;2023-02-01T11:27:38;0.90;;;0.90;;
38023;SDS011;23834;48.080;11.682;2023-02-01T11:30:03;1.20;;;1.10;;
38023;SDS011;23834;48.080;11.682;2023-02-01T11:32:29;0.87;;;0.87;;
38023;SDS011;23834;48.080;11.682;2023-02-01T11:34:59;1.43;;;1.13;;
38023;SDS011;23834;48.080;11.682;2023-02-01T11:37:27;1.00;;;0.80;;
38023;SDS011;23834;48.080;11.682;2023-02-01T11:40:01;1.10;;;1.10;;
38023;SDS011;23834;48.080;11.682;2023-02-01T11:42:27;1.57;;;1.47;;
38023;SDS011;23834;48.080;11.682;2023-02-01T11:45:13;1.20;;;1.10;;
38023;SDS011;23834;48.080;11.682;2023-02-01T11:47:39;1.37;;;1.10;;
38023;SDS011;23834;48.080;11.682;2023-02-01T11:50:08;1.17;;;1.03;;
38023;SDS011;23834;48.080;11.682;2023-02-01T11:57:47;1.37;;;1.20;;
38023;SDS011;23834;48.080;11.682;2023-02-01T12:02:58;1.00;;;0.90;;
38023;SDS011;23834;48.080;11.682;2023-02-01T12:05:37;1.00;;;1.00;;
38023;SDS011;23834;48.080;11.682;2023-02-01T12:20:57;1.00;;;1.00;;
38023;SDS011;23834;48.080;11.682;2023-02-01T12:36:32;1.17;;;1.07;;
38023;SDS011;23834;48.080;11.682;2023-02-01T12:41:37;1.30;;;1.20;;
38023;SDS011;23834;48.080;11.682;2023-02-01T12:44:11;1.43;;;1.33;;
38023;SDS011;23834;48.080;11.682;2023-02-01T12:47:21;0.80;;;0.80;;
38023;SDS011;23834;48.080;11.682;2023-02-01T12:49:41;0.97;;;0.97;;
38023;SDS011;23834;48.080;11.682;2023-02-01T12:52:13;0.90;;;0.90;;
38023;SDS011;23834;48.080;11.682;2023-02-01T12:54:46;1.20;;;0.80;;
38023;SDS011;23834;48.080;11.682;2023-02-01T12:57:32;1.33;;;0.90;;
38023;SDS011;23834;48.080;11.682;2023-02-01T13:05:00;0.90;;;0.90;;
38023;SDS011;23834;48.080;11.682;2023-02-01T13:07:36;1.37;;;0.90;;
38023;SDS011;23834;48.080;11.682;2023-02-01T13:12:40;0.80;;;0.80;;
38023;SDS011;23834;48.080;11.682;2023-02-01T13:15:12;2.00;;;1.23;;
38023;SDS011;23834;48.080;11.682;2023-02-01T13:17:39;1.00;;;0.90;;
38023;SDS011;23834;48.080;11.682;2023-02-01T13:22:47;1.10;;;0.90;;
38023;SDS011;23834;48.080;11.682;2023-02-01T13:27:49;1.40;;;1.30;;
38023;SDS011;23834;48.080;11.682;2023-02-01T13:30:25;2.17;;;1.03;;
38023;SDS011;23834;48.080;11.682;2023-02-01T13:32:59;0.87;;;0.87;;
38023;SDS011;23834;48.080;11.682;2023-02-01T13:38:19;1.20;;;0.93;;
38023;SDS011;23834;48.080;11.682;2023-02-01T13:40:56;1.27;;;1.03;;
38023;SDS011;23834;48.080;11.682;2023-02-01T13:43:27;2.80;;;1.17;;
38023;SDS011;23834;48.080;11.682;2023-02-01T13:45:55;1.73;;;0.80;;
38023;SDS011;23834;48.080;11.682;2023-02-01T13:48:25;1.00;;;0.90;;
38023;SDS011;23834;48.080;11.682;2023-02-01T13:50:53;2.10;;;0.90;;
38023;SDS011;23834;48.080;11.682;2023-02-01T13:53:22;1.20;;;1.10;;
38023;SDS011;23834;48.080;11.682;2023-02-01T13:56:22;2.70;;;1.03;;
38023;SDS011;23834;48.080;11.682;2023-02-01T13:58:41;1.80;;;1.23;;
38023;SDS011;23834;48.080;11.682;2023-02-01T14:03:47;1.37;;;1.00;;
38023;SDS011;23834;48.080;11.682;2023-02-01T14:06:18;1.10;;;1.00;;
38023;SDS011;23834;48.080;11.682;2023-02-01T14:11:35;0.97;;;0.97;;
38023;SDS011;23834;48.080;11.682;2023-02-01T14:19:26;1.03;;;1.00;;
38023;SDS011;23834;48.080;11.682;2023-02-01T14:21:53;1.10;;;0.87;;
38023;SDS011;23834;48.080;11.682;2023-02-01T14:24:26;0.97;;;0.90;;
38023;SDS011;23834;48.080;11.682;2023-02-01T14:26:52;1.27;;;1.17;;
38023;SDS011;23834;48.080;11.682;2023-02-01T14:37:01;1.10;;;1.00;;
38023;SDS011;23834;48.080;11.682;2023-02-01T14:39:31;1.67;;;1.20;;
38023;SDS011;23834;48.080;11.682;2023-02-01T14:42:05;0.93;;;0.93;;
38023;SDS011;23834;48.080;11.682;2023-02-01T14:44:32;0.93;;;0.93;;
38023;SDS011;23834;48.080;11.682;2023-02-01T14:49:29;1.17;;;1.10;;
38023;SDS011;23834;48.080;11.682;2023-02-01T14:51:56;0.87;;;0.80;;
38023;SDS011;23834;48.080;11.682;2023-02-01T14:54:21;1.10;;;1.00;;
38023;SDS011;23834;48.080;11.682;2023-02-01T14:56:47;2.40;;;0.90;;
38023;SDS011;23834;48.080;11.682;2023-02-01T14:59:14;1.13;;;1.03;;
38023;SDS011;23834;48.080;11.682;2023-02-01T15:01:46;1.00;;;1.00;;
38023;SDS011;23834;48.080;11.682;2023-02-01T15:04:15;1.10;;;0.80;;
38023;SDS011;23834;48.080;11.682;2023-02-01T15:09:38;1.10;;;1.00;;
38023;SDS011;23834;48.080;11.682;2023-02-01T15:12:08;1.40;;;1.30;;
38023;SDS011;23834;48.080;11.682;2023-02-01T15:14:46;0.93;;;0.87;;
38023;SDS011;23834;48.080;11.682;2023-02-01T15:19:54;2.80;;;1.00;;
38023;SDS011;23834;48.080;11.682;2023-02-01T15:22:20;1.00;;;1.00;;
38023;SDS011;23834;48.080;11.682;2023-02-01T15:24:51;1.87;;;1.13;;
38023;SDS011;23834;48.080;11.682;2023-02-01T15:27:16;1.00;;;1.00;;
38023;SDS011;23834;48.080;11.682;2023-02-01T15:29:42;1.07;;;1.00;;
38023;SDS011;23834;48.080;11.682;2023-02-01T15:32:15;1.37;;;0.80;;
38023;SDS011;23834;48.080;11.682;2023-02-01T15:34:52;1.20;;;1.10;;
38023;SDS011;23834;48.080;11.682;2023-02-01T15:37:17;0.90;;;0.87;;
38023;SDS011;23834;48.080;11.682;2023-02-01T15:42:32;1.33;;;0.97;;
38023;SDS011;23834;48.080;11.682;2023-02-01T15:44:58;1.37;;;1.00;;
38023;SDS011;23834;48.080;11.682;2023-02-01T15:47:24;1.20;;;1.10;;
38023;SDS011;23834;48.080;11.682;2023-02-01T15:49:50;1.00;;;1.00;;
38023;SDS011;23834;48.080;11.682;2023-02-01T15:52:27;1.30;;;1.20;;
38023;SDS011;23834;48.080;11.682;2023-02-01T15:54:56;1.30;;;1.00;;
38023;SDS011;23834;48.080;11.682;2023-02-01T15:57:23;1.07;;;1.00;;
38023;SDS011;23834;48.080;11.682;2023-02-01T15:59:55;1.57;;;0.97;;
38023;SDS011;23834;48.080;11.682;2023-02-01T16:02:29;1.30;;;1.20;;
38023;SDS011;23834;48.080;11.682;2023-02-01T16:04:57;1.67;;;1.00;;
38023;SDS011;23834;48.080;11.682;2023-02-01T16:07:30;0.97;;;0.97;;
38023;SDS011;23834;48.080;11.682;2023-02-01T16:09:56;1.07;;;0.97;;
38023;SDS011;23834;48.080;11.682;2023-02-01T16:12:29;1.03;;;0.90;;
38023;SDS011;23834;48.080;11.682;2023-02-01T16:14:55;3.37;;;1.13;;
38023;SDS011;23834;48.080;11.682;2023-02-01T16:17:20;1.10;;;1.00;;
38023;SDS011;23834;48.080;11.682;2023-02-01T16:19:45;0.90;;;0.80;;
38023;SDS011;23834;48.080;11.682;2023-02-01T16:22:11;1.00;;;1.00;;
38023;SDS011;23834;48.080;11.682;2023-02-01T16:24:36;1.33;;;1.13;;
38023;SDS011;23834;48.080;11.682;2023-02-01T16:27:02;1.30;;;1.20;;
38023;SDS011;23834;48.080;11.682;2023-02-01T16:29:27;1.10;;;1.00;;
38023;SDS011;23834;48.080;11.682;2023-02-01T16:31:53;1.03;;;0.93;;
38023;SDS011;23834;48.080;11.682;2023-02-01T16:34:18;1.23;;;1.10;;
38023;SDS011;23834;48.080;11.682;2023-02-01T16:36:48;1.10;;;1.10;;
38023;SDS011;23834;48.080;11.682;2023-02-01T16:39:23;0.93;;;0.90;;
38023;SDS011;23834;48.080;11.682;2023-02-01T16:41:48;2.50;;;0.83;;
38023;SDS011;23834;48.080;11.682;2023-02-01T16:44:14;1.20;;;1.00;;
38023;SDS011;23834;48.080;11.682;2023-02-01T16:46:40;0.83;;;0.83;;
38023;SDS011;23834;48.080;11.682;2023-02-01T16:49:07;0.80;;;0.80;;
38023;SDS011;23834;48.080;11.682;2023-02-01T16:51:41;1.50;;;1.13;;
38023;SDS011;23834;48.080;11.682;2023-02-01T16:54:07;1.43;;;1.10;;